createdAt,value
2023-04-19T00:00:44.903Z,44.74
2023-04-19T00:01:46.625Z,44.91
2023-04-19T00:02:49.831Z,44.72
2023-04-19T00:03:52.112Z,44.76
2023-04-19T00:04:55.787Z,45.18
2023-04-19T00:05:59.192Z,44.82
2023-04-19T00:07:03.900Z,45.17
2023-04-19T00:08:07.270Z,45.21
2023-04-19T00:09:09.091Z,45.25
2023-04-19T00:10:12.082Z,45.21
2023-04-19T00:11:13.781Z,45.14
2023-04-19T00:12:16.473Z,44.94
2023-04-19T00:13:18.250Z,45.36
2023-04-19T00:14:20.951Z,45.32
2023-04-19T00:15:22.692Z,44.97
2023-04-19T00:16:25.496Z,45.08
2023-04-19T00:17:27.568Z,45.35
2023-04-19T00:18:30.265Z,45.32
2023-04-19T00:19:31.950Z,45.27
2023-04-19T00:20:34.599Z,45.32
2023-04-19T00:21:36.329Z,45.22
2023-04-19T00:22:40.382Z,45.06
2023-04-19T00:23:42.047Z,45.31
2023-04-19T00:24:44.792Z,45.30
2023-04-19T00:25:46.712Z,45.09
2023-04-19T00:26:49.414Z,45.15
2023-04-19T00:27:51.133Z,45.11
2023-04-19T00:28:53.886Z,45.32
2023-04-19T00:29:57.297Z,45.26
2023-04-19T00:31:00.036Z,45.45
2023-04-19T00:32:02.080Z,45.38
2023-04-19T00:33:05.351Z,45.28
2023-04-19T00:34:07.254Z,45.42
2023-04-19T00:35:10.973Z,45.28
2023-04-19T00:36:12.712Z,45.55
2023-04-19T00:37:15.522Z,45.62
2023-04-19T00:38:18.715Z,45.34
2023-04-19T00:39:21.357Z,45.19
2023-04-19T00:40:23.155Z,45.50
2023-04-19T00:41:25.925Z,45.58
2023-04-19T00:42:27.631Z,45.50
2023-04-19T00:43:30.299Z,45.51
2023-04-19T00:44:32.000Z,45.63
2023-04-19T00:45:36.302Z,45.41
2023-04-19T00:46:38.234Z,45.38
2023-04-19T00:47:41.337Z,45.87
2023-04-19T00:48:43.155Z,45.57
2023-04-19T00:49:45.846Z,45.59
2023-04-19T00:50:47.779Z,45.82
2023-04-19T00:51:51.058Z,45.74
2023-04-19T00:52:54.075Z,45.89
2023-04-19T00:53:58.761Z,45.28
2023-04-19T00:55:00.600Z,45.72
2023-04-19T00:56:05.569Z,45.33
2023-04-19T00:57:07.465Z,45.83
2023-04-19T00:58:10.807Z,45.59
2023-04-19T00:59:14.954Z,45.60
2023-04-19T01:00:18.149Z,45.91
2023-04-19T01:01:20.076Z,45.53
2023-04-19T01:02:23.160Z,45.96
2023-04-19T01:03:27.724Z,45.68
2023-04-19T01:04:30.920Z,45.90
2023-04-19T01:05:32.723Z,46.11
2023-04-19T01:06:36.219Z,45.78
2023-04-19T01:07:38.129Z,45.74
2023-04-19T01:08:40.973Z,46.02
2023-04-19T01:09:45.277Z,45.81
2023-04-19T01:10:47.994Z,45.69
2023-04-19T01:11:50.191Z,45.95
2023-04-19T01:12:52.847Z,45.85
2023-04-19T01:13:55.547Z,46.05
2023-04-19T01:14:58.329Z,46.25
2023-04-19T01:16:00.737Z,46.38
2023-04-19T01:17:03.442Z,46.41
2023-04-19T01:18:05.476Z,46.35
2023-04-19T01:19:08.545Z,46.42
2023-04-19T01:20:11.829Z,46.41
2023-04-19T01:21:14.533Z,46.50
2023-04-19T01:22:21.425Z,46.44
2023-04-19T01:23:24.164Z,46.54
2023-04-19T01:24:26.026Z,46.43
2023-04-19T01:25:28.780Z,46.36
2023-04-19T01:26:30.838Z,46.57
2023-04-19T01:27:33.611Z,46.49
2023-04-19T01:28:35.389Z,46.25
2023-04-19T01:29:38.170Z,46.28
2023-04-19T01:30:40.015Z,46.44
2023-04-19T01:31:42.765Z,46.36
2023-04-19T01:32:44.552Z,46.55
2023-04-19T01:33:47.234Z,46.30
2023-04-19T01:34:49.119Z,46.45
2023-04-19T01:35:52.036Z,46.67
2023-04-19T01:36:53.820Z,46.61
2023-04-19T01:37:57.869Z,46.32
2023-04-19T01:38:59.579Z,46.71
2023-04-19T01:40:02.353Z,46.48
2023-04-19T01:41:04.070Z,46.33
2023-04-19T01:42:06.921Z,46.33
2023-04-19T01:43:08.762Z,46.38
2023-04-19T01:44:11.509Z,46.48
2023-04-19T01:45:13.347Z,46.70
2023-04-19T01:46:16.071Z,46.90
2023-04-19T01:47:17.795Z,46.74
2023-04-19T01:48:20.534Z,46.67
2023-04-19T01:49:22.221Z,46.58
2023-04-19T01:50:25.000Z,46.86
2023-04-19T01:51:26.651Z,46.50
2023-04-19T01:52:29.333Z,46.63
2023-04-19T01:53:32.334Z,47.18
2023-04-19T01:54:34.994Z,46.82
2023-04-19T01:55:36.738Z,46.75
2023-04-19T01:56:39.488Z,46.44
2023-04-19T01:57:41.213Z,46.71
2023-04-19T01:58:43.948Z,46.86
2023-04-19T01:59:45.635Z,46.89
2023-04-19T02:00:48.383Z,47.01
2023-04-19T02:01:50.247Z,46.75
2023-04-19T02:02:53.061Z,46.93
2023-04-19T02:03:55.129Z,47.02
2023-04-19T02:04:58.815Z,46.75
2023-04-19T02:06:00.558Z,47.13
2023-04-19T02:07:03.252Z,47.12
2023-04-19T02:08:05.168Z,47.10
2023-04-19T02:09:09.642Z,47.06
2023-04-19T02:10:11.486Z,47.08
2023-04-19T02:11:15.419Z,46.82
2023-04-19T02:12:17.264Z,46.91
2023-04-19T02:13:19.898Z,46.74
2023-04-19T02:14:21.718Z,47.21
2023-04-19T02:15:24.634Z,47.37
2023-04-19T02:16:26.369Z,46.95
2023-04-19T02:17:29.482Z,47.16
2023-04-19T02:18:31.890Z,47.21
2023-04-19T02:19:34.669Z,47.09
2023-04-19T02:20:36.325Z,47.08
2023-04-19T02:21:39.032Z,47.26
2023-04-19T02:22:40.762Z,47.03
2023-04-19T02:23:43.447Z,47.40
2023-04-19T02:24:47.289Z,47.37
2023-04-19T02:25:49.974Z,47.14
2023-04-19T02:26:51.689Z,47.19
2023-04-19T02:27:54.838Z,47.38
2023-04-19T02:28:56.538Z,47.06
2023-04-19T02:29:59.277Z,47.04
2023-04-19T02:31:04.626Z,47.25
2023-04-19T02:32:07.558Z,46.94
2023-04-19T02:33:09.436Z,46.87
2023-04-19T02:34:12.262Z,47.27
2023-04-19T02:35:14.083Z,47.15
2023-04-19T02:36:16.770Z,47.32
2023-04-19T02:37:18.543Z,47.42
2023-04-19T02:38:21.254Z,47.28
2023-04-19T02:39:22.960Z,47.12
2023-04-19T02:40:27.174Z,47.28
2023-04-19T02:41:28.874Z,47.23
2023-04-19T02:42:31.575Z,47.55
2023-04-19T02:43:33.292Z,47.32
2023-04-19T02:44:36.026Z,47.30
2023-04-19T02:45:37.842Z,47.47
2023-04-19T02:46:40.600Z,47.60
2023-04-19T02:47:42.451Z,47.30
2023-04-19T02:48:45.461Z,47.89
2023-04-19T02:49:47.136Z,47.73
2023-04-19T02:50:49.825Z,48.17
2023-04-19T02:51:52.182Z,47.89
2023-04-19T02:52:54.977Z,48.21
2023-04-19T02:53:57.652Z,47.86
2023-04-19T02:54:59.349Z,48.50
2023-04-19T02:56:03.820Z,48.36
2023-04-19T02:57:05.501Z,47.86
2023-04-19T02:58:08.168Z,48.12
2023-04-19T02:59:09.887Z,48.49
2023-04-19T03:00:14.000Z,48.55
2023-04-19T03:01:15.824Z,48.02
2023-04-19T03:02:18.792Z,48.34
2023-04-19T03:03:20.577Z,48.31
2023-04-19T03:04:23.776Z,48.68
2023-04-19T03:05:25.626Z,48.87
2023-04-19T03:06:28.391Z,48.59
2023-04-19T03:07:30.201Z,48.71
2023-04-19T03:08:33.013Z,48.97
2023-04-19T03:09:34.739Z,48.84
2023-04-19T03:10:37.466Z,48.83
2023-04-19T03:11:40.522Z,49.13
2023-04-19T03:12:43.190Z,49.32
2023-04-19T03:13:46.041Z,49.22
2023-04-19T03:14:47.793Z,49.44
2023-04-19T03:15:50.704Z,49.07
2023-04-19T03:16:52.465Z,49.18
2023-04-19T03:17:55.226Z,49.10
2023-04-19T03:18:56.906Z,49.11
2023-04-19T03:19:59.080Z,49.13
2023-04-19T03:21:01.900Z,49.46
2023-04-19T03:22:03.627Z,49.33
2023-04-19T03:23:06.469Z,49.84
2023-04-19T03:24:08.380Z,49.79
2023-04-19T03:25:12.482Z,50.04
2023-04-19T03:26:14.214Z,50.16
2023-04-19T03:27:18.508Z,49.77
2023-04-19T03:28:20.263Z,49.84
2023-04-19T03:29:23.054Z,50.41
2023-04-19T03:30:24.753Z,49.88
2023-04-19T03:31:27.422Z,50.07
2023-04-19T03:32:29.170Z,50.11
2023-04-19T03:33:31.950Z,50.53
2023-04-19T03:34:33.747Z,50.43
2023-04-19T03:35:36.444Z,50.34
2023-04-19T03:36:39.329Z,50.50
2023-04-19T03:37:41.022Z,50.71
2023-04-19T03:38:44.457Z,50.76
2023-04-19T03:39:46.240Z,50.35
2023-04-19T03:40:48.898Z,50.72
2023-04-19T03:41:50.843Z,50.25
2023-04-19T03:42:54.908Z,50.46
2023-04-19T03:43:58.226Z,50.20
2023-04-19T03:45:00.944Z,50.46
2023-04-19T03:46:02.711Z,50.45
2023-04-19T03:47:05.490Z,50.35
2023-04-19T03:48:07.362Z,50.54
2023-04-19T03:49:10.077Z,50.70
2023-04-19T03:50:12.054Z,50.35
2023-04-19T03:51:15.935Z,50.65
2023-04-19T03:52:17.627Z,50.88
2023-04-19T03:53:20.301Z,50.35
2023-04-19T03:54:22.000Z,51.12
2023-04-19T03:55:24.686Z,50.40
2023-04-19T03:56:26.485Z,50.79
2023-04-19T03:57:29.211Z,50.91
2023-04-19T03:58:32.252Z,51.09
2023-04-19T03:59:36.224Z,51.06
2023-04-19T04:00:37.941Z,51.38
2023-04-19T04:01:42.325Z,51.14
2023-04-19T04:02:45.050Z,50.69
2023-04-19T04:03:48.297Z,51.08
2023-04-19T04:04:54.848Z,50.83
2023-04-19T04:05:56.618Z,51.34
2023-04-19T04:06:59.326Z,51.09
2023-04-19T04:08:01.065Z,51.43
2023-04-19T04:09:03.916Z,51.48
2023-04-19T04:10:06.813Z,51.70
2023-04-19T04:11:09.478Z,51.34
2023-04-19T04:12:12.972Z,51.63
2023-04-19T04:13:15.740Z,51.67
2023-04-19T04:14:18.850Z,51.72
2023-04-19T04:15:21.638Z,51.48
2023-04-19T04:16:23.610Z,51.90
2023-04-19T04:17:26.302Z,51.77
2023-04-19T04:18:28.619Z,51.54
2023-04-19T04:19:31.282Z,51.62
2023-04-19T04:20:33.034Z,51.46
2023-04-19T04:21:35.741Z,51.71
2023-04-19T04:22:40.889Z,52.07
2023-04-19T04:23:43.598Z,51.64
2023-04-19T04:24:45.361Z,51.79
2023-04-19T04:25:48.053Z,51.54
2023-04-19T04:26:49.960Z,51.74
2023-04-19T04:27:53.018Z,51.80
2023-04-19T04:28:54.706Z,51.95
2023-04-19T04:29:59.139Z,52.33
2023-04-19T04:31:00.803Z,52.34
2023-04-19T04:32:03.666Z,51.98
2023-04-19T04:33:05.457Z,51.91
2023-04-19T04:34:09.176Z,52.25
2023-04-19T04:35:11.403Z,52.21
2023-04-19T04:36:14.148Z,52.23
2023-04-19T04:37:17.931Z,52.15
2023-04-19T04:38:24.496Z,52.13
2023-04-19T04:39:27.903Z,52.53
2023-04-19T04:40:29.605Z,52.64
2023-04-19T04:41:32.354Z,52.27
2023-04-19T04:42:34.077Z,52.34
2023-04-19T04:43:36.910Z,52.69
2023-04-19T04:44:39.019Z,52.75
2023-04-19T04:45:44.622Z,52.89
2023-04-19T04:46:46.486Z,52.55
2023-04-19T04:47:49.187Z,52.44
2023-04-19T04:48:52.402Z,52.94
2023-04-19T04:49:55.057Z,53.10
2023-04-19T04:50:57.003Z,52.72
2023-04-19T04:51:59.773Z,52.70
2023-04-19T04:53:01.458Z,53.13
2023-04-19T04:54:05.182Z,53.47
2023-04-19T04:55:07.600Z,53.57
2023-04-19T04:56:10.351Z,53.64
2023-04-19T04:57:12.066Z,53.18
2023-04-19T04:58:14.785Z,53.67
2023-04-19T04:59:16.649Z,53.74
2023-04-19T05:00:19.916Z,53.93
2023-04-19T05:01:24.231Z,53.66
2023-04-19T05:02:26.307Z,53.80
2023-04-19T05:03:29.279Z,53.95
2023-04-19T05:04:31.296Z,53.98
2023-04-19T05:05:34.369Z,53.81
2023-04-19T05:06:36.347Z,53.95
2023-04-19T05:07:39.101Z,54.29
2023-04-19T05:08:40.814Z,54.45
2023-04-19T05:09:43.505Z,54.39
2023-04-19T05:10:49.316Z,54.06
2023-04-19T05:11:51.039Z,54.66
2023-04-19T05:12:53.775Z,54.15
2023-04-19T05:13:55.556Z,54.09
2023-04-19T05:14:58.236Z,54.33
2023-04-19T05:16:01.006Z,54.60
2023-04-19T05:17:06.584Z,54.26
2023-04-19T05:18:08.967Z,54.60
2023-04-19T05:19:11.621Z,54.65
2023-04-19T05:20:14.024Z,54.21
2023-04-19T05:21:16.668Z,54.92
2023-04-19T05:22:18.369Z,54.28
2023-04-19T05:23:21.345Z,55.00
2023-04-19T05:24:23.132Z,54.63
2023-04-19T05:25:25.847Z,54.95
2023-04-19T05:26:27.656Z,55.09
2023-04-19T05:27:30.287Z,55.04
2023-04-19T05:28:32.039Z,54.77
2023-04-19T05:29:34.709Z,54.64
2023-04-19T05:30:36.486Z,54.76
2023-04-19T05:31:39.241Z,54.65
2023-04-19T05:32:42.373Z,55.06
2023-04-19T05:33:45.130Z,55.01
2023-04-19T05:34:47.002Z,54.87
2023-04-19T05:35:49.786Z,54.81
2023-04-19T05:36:51.515Z,55.09
2023-04-19T05:37:54.167Z,55.32
2023-04-19T05:38:55.830Z,55.28
2023-04-19T05:39:58.500Z,55.05
2023-04-19T05:41:00.447Z,55.32
2023-04-19T05:42:03.193Z,55.33
2023-04-19T05:43:04.960Z,55.21
2023-04-19T05:44:08.090Z,54.87
2023-04-19T05:45:10.870Z,55.39
2023-04-19T05:46:13.603Z,54.82
2023-04-19T05:47:15.535Z,54.91
2023-04-19T05:48:19.548Z,54.88
2023-04-19T05:49:22.415Z,54.71
2023-04-19T05:50:25.069Z,55.12
2023-04-19T05:51:28.337Z,54.76
2023-04-19T05:52:31.197Z,55.04
2023-04-19T05:53:32.850Z,54.59
2023-04-19T05:54:36.126Z,54.45
2023-04-19T05:55:37.890Z,54.25
2023-04-19T05:56:40.884Z,54.44
2023-04-19T05:57:42.603Z,54.50
2023-04-19T05:58:46.672Z,54.36
2023-04-19T05:59:48.423Z,54.38
2023-04-19T06:00:52.487Z,53.62
2023-04-19T06:01:56.054Z,54.03
2023-04-19T06:02:58.977Z,53.83
2023-04-19T06:04:04.596Z,53.68
2023-04-19T06:05:09.986Z,53.30
2023-04-19T06:06:12.645Z,53.45
2023-04-19T06:07:27.553Z,53.19
2023-04-19T06:08:35.538Z,53.50
2023-04-19T06:09:37.184Z,53.03
2023-04-19T06:10:51.915Z,53.17
2023-04-19T06:11:58.272Z,52.77
2023-04-19T06:12:59.987Z,52.74
2023-04-19T06:14:02.749Z,52.64
2023-04-19T06:15:06.560Z,52.72
2023-04-19T06:16:09.252Z,52.38
2023-04-19T06:17:11.989Z,52.36
2023-04-19T06:18:19.613Z,52.37
2023-04-19T06:19:24.396Z,52.37
2023-04-19T06:20:26.144Z,52.28
2023-04-19T06:21:31.237Z,51.95
2023-04-19T06:22:33.017Z,52.01
2023-04-19T06:23:35.961Z,52.26
2023-04-19T06:24:38.803Z,52.11
2023-04-19T06:25:41.574Z,51.87
2023-04-19T06:26:44.353Z,52.05
2023-04-19T06:27:46.047Z,51.68
2023-04-19T06:28:48.763Z,51.93
2023-04-19T06:29:51.320Z,51.79
2023-04-19T06:30:54.221Z,51.85
2023-04-19T06:31:56.063Z,51.35
2023-04-19T06:32:58.966Z,51.62
2023-04-19T06:34:00.927Z,51.60
2023-04-19T06:35:06.092Z,51.36
2023-04-19T06:36:08.873Z,51.34
2023-04-19T06:37:11.633Z,51.75
2023-04-19T06:38:14.005Z,51.17
2023-04-19T06:39:16.980Z,51.87
2023-04-19T06:40:21.861Z,51.66
2023-04-19T06:41:24.714Z,51.54
2023-04-19T06:42:27.556Z,51.19
2023-04-19T06:43:29.435Z,51.16
2023-04-19T06:44:32.248Z,50.93
2023-04-19T06:45:35.044Z,50.93
2023-04-19T06:46:37.772Z,50.92
2023-04-19T06:47:39.545Z,50.65
2023-04-19T06:48:42.437Z,50.41
2023-04-19T06:49:45.514Z,50.62
2023-04-19T06:50:51.709Z,50.53
2023-04-19T06:51:54.499Z,50.28
2023-04-19T06:52:56.324Z,49.77
2023-04-19T06:53:59.170Z,49.37
2023-04-19T06:55:00.984Z,49.17
2023-04-19T06:56:05.311Z,48.95
2023-04-19T06:57:07.120Z,48.76
2023-04-19T06:58:10.861Z,49.02
2023-04-19T06:59:13.252Z,48.67
2023-04-19T07:00:16.720Z,48.80
2023-04-19T07:01:19.087Z,48.80
2023-04-19T07:02:23.042Z,48.68
2023-04-19T07:03:25.068Z,48.86
2023-04-19T07:04:28.124Z,48.35
2023-04-19T07:05:31.811Z,48.38
2023-04-19T07:06:34.986Z,48.10
2023-04-19T07:07:41.112Z,47.63
2023-04-19T07:08:49.798Z,47.55
2023-04-19T07:09:53.275Z,47.41
2023-04-19T07:10:56.668Z,47.36
2023-04-19T07:11:59.367Z,47.31
2023-04-19T07:13:01.158Z,47.41
2023-04-19T07:14:03.962Z,47.44
2023-04-19T07:15:06.379Z,47.30
2023-04-19T07:16:09.140Z,47.22
2023-04-19T07:17:13.100Z,47.06
2023-04-19T07:18:16.110Z,46.91
2023-04-19T07:19:20.515Z,46.42
2023-04-19T07:20:23.316Z,46.07
2023-04-19T07:21:26.975Z,46.10
2023-04-19T07:22:30.987Z,46.55
2023-04-19T07:23:33.704Z,46.27
2023-04-19T07:24:35.478Z,45.85
2023-04-19T07:25:38.178Z,45.73
2023-04-19T07:26:39.981Z,45.74
2023-04-19T07:27:44.912Z,45.85
2023-04-19T07:28:46.670Z,45.47
2023-04-19T07:29:49.377Z,45.09
2023-04-19T07:30:51.104Z,45.01
2023-04-19T07:31:55.380Z,44.90
2023-04-19T07:32:58.229Z,44.69
2023-04-19T07:33:59.969Z,44.28
2023-04-19T07:35:02.772Z,44.65
2023-04-19T07:36:04.917Z,44.34
2023-04-19T07:37:07.625Z,44.22
2023-04-19T07:38:11.695Z,44.34
2023-04-19T07:39:13.686Z,44.16
2023-04-19T07:40:16.501Z,44.21
2023-04-19T07:41:19.246Z,44.08
2023-04-19T07:42:21.906Z,44.18
2023-04-19T07:43:23.785Z,44.00
2023-04-19T07:44:26.499Z,43.95
2023-04-19T07:45:30.910Z,43.74
2023-04-19T07:46:33.689Z,43.99
2023-04-19T07:47:35.629Z,43.88
2023-04-19T07:48:39.104Z,43.83
2023-04-19T07:49:41.825Z,43.93
2023-04-19T07:50:43.532Z,43.88
2023-04-19T07:51:46.226Z,43.84
2023-04-19T07:52:47.979Z,43.83
2023-04-19T07:53:52.285Z,44.10
2023-04-19T07:54:54.004Z,43.79
2023-04-19T07:55:57.907Z,44.18
2023-04-19T07:56:59.668Z,44.01
2023-04-19T07:58:02.557Z,44.06
2023-04-19T07:59:09.051Z,43.96
2023-04-19T08:00:13.006Z,43.72
2023-04-19T08:01:16.599Z,44.05
2023-04-19T08:02:19.201Z,44.10
2023-04-19T08:03:22.116Z,44.06
2023-04-19T08:04:24.402Z,44.34
2023-04-19T08:05:27.779Z,43.92
2023-04-19T08:06:30.514Z,44.06
2023-04-19T08:07:33.271Z,44.05
2023-04-19T08:08:36.133Z,44.05
2023-04-19T08:09:40.283Z,44.04
2023-04-19T08:10:43.013Z,44.10
2023-04-19T08:11:44.809Z,43.87
2023-04-19T08:13:03.702Z,43.71
2023-04-19T08:14:15.083Z,43.70
2023-04-19T08:16:13.177Z,43.69
2023-04-19T08:17:58.118Z,43.43
2023-04-19T08:19:00.063Z,43.44
2023-04-19T08:20:02.902Z,43.44
2023-04-19T08:21:05.022Z,43.46
2023-04-19T08:22:07.758Z,43.59
2023-04-19T08:23:21.497Z,43.52
2023-04-19T08:24:27.330Z,43.48
2023-04-19T08:25:30.500Z,43.50
2023-04-19T08:26:33.175Z,43.20
2023-04-19T08:27:36.544Z,43.12
2023-04-19T08:28:39.267Z,43.04
2023-04-19T08:29:42.484Z,42.91
2023-04-19T08:30:45.258Z,42.80
2023-04-19T08:31:49.594Z,42.77
2023-04-19T08:32:53.149Z,42.75
2023-04-19T08:33:58.582Z,42.65
2023-04-19T08:35:01.111Z,42.66
2023-04-19T08:36:03.967Z,42.82
2023-04-19T08:37:06.018Z,42.68
2023-04-19T08:38:08.707Z,42.68
2023-04-19T08:39:18.013Z,42.21
2023-04-19T08:40:34.154Z,42.16
2023-04-19T08:41:36.917Z,42.22
2023-04-19T08:42:39.684Z,42.05
2023-04-19T08:43:43.795Z,41.95
2023-04-19T08:45:53.953Z,42.11
2023-04-19T08:46:57.826Z,42.13
2023-04-19T08:48:02.088Z,41.92
2023-04-19T08:49:06.960Z,41.90
2023-04-19T08:50:24.110Z,42.04
2023-04-19T08:51:32.967Z,41.79
2023-04-19T08:52:47.929Z,41.79
2023-04-19T08:53:57.714Z,41.82
2023-04-19T08:55:02.577Z,41.94
2023-04-19T08:56:20.668Z,41.62
2023-04-19T08:57:32.024Z,41.47
2023-04-19T08:59:40.254Z,41.31
2023-04-19T09:00:43.362Z,41.09
2023-04-19T09:01:46.204Z,40.74
2023-04-19T09:02:49.995Z,40.26
2023-04-19T09:04:02.432Z,39.93
2023-04-19T09:05:07.564Z,39.87
2023-04-19T09:06:09.631Z,39.85
2023-04-19T09:07:24.318Z,39.86
2023-04-19T09:08:28.731Z,39.96
2023-04-19T09:09:37.027Z,40.13
2023-04-19T09:10:54.371Z,39.49
2023-04-19T09:11:59.166Z,39.46
2023-04-19T09:13:02.277Z,39.50
2023-04-19T09:14:09.164Z,39.40
2023-04-19T09:15:12.143Z,39.38
2023-04-19T09:16:24.632Z,39.50
2023-04-19T09:17:27.450Z,39.56
2023-04-19T09:18:32.248Z,39.27
2023-04-19T09:19:45.875Z,37.91
2023-04-19T09:20:48.648Z,37.62
2023-04-19T09:21:51.971Z,37.93
2023-04-19T09:23:04.955Z,37.73
2023-04-19T09:24:08.625Z,37.67
2023-04-19T09:26:23.336Z,37.49
2023-04-19T09:27:30.450Z,37.54
2023-04-19T09:28:33.213Z,36.98
2023-04-19T09:29:34.962Z,36.58
2023-04-19T09:30:46.838Z,36.55
2023-04-19T09:31:59.405Z,36.95
2023-04-19T09:33:01.300Z,36.62
2023-04-19T09:34:14.719Z,35.93
2023-04-19T09:35:17.483Z,35.82
2023-04-19T09:36:28.432Z,35.39
2023-04-19T09:37:51.354Z,35.46
2023-04-19T09:38:53.883Z,35.69
2023-04-19T09:39:57.023Z,35.69
2023-04-19T09:41:08.787Z,35.36
2023-04-19T09:42:11.464Z,36.45
2023-04-19T09:43:53.251Z,35.80
2023-04-19T09:45:27.490Z,35.65
2023-04-19T09:46:32.978Z,36.31
2023-04-19T09:47:35.727Z,36.37
2023-04-19T09:48:38.452Z,36.10
2023-04-19T09:49:48.443Z,35.85
2023-04-19T09:50:58.520Z,35.78
2023-04-19T09:52:04.504Z,35.09
2023-04-19T09:53:06.810Z,34.82
2023-04-19T09:54:10.653Z,34.36
2023-04-19T09:55:25.407Z,34.51
2023-04-19T09:56:30.790Z,34.90
2023-04-19T09:57:33.496Z,34.05
2023-04-19T09:58:50.014Z,34.28
2023-04-19T09:59:57.133Z,33.68
2023-04-19T10:01:13.265Z,33.41
2023-04-19T10:02:18.275Z,33.48
2023-04-19T10:03:22.096Z,33.25
2023-04-19T10:04:33.334Z,33.15
2023-04-19T10:05:48.528Z,33.12
2023-04-19T10:07:19.500Z,33.17
2023-04-19T10:08:13.969Z,33.17
2023-04-19T10:09:17.144Z,33.12
2023-04-19T10:10:27.621Z,33.45
2023-04-19T10:11:48.040Z,33.38
2023-04-19T10:14:03.397Z,33.16
2023-04-19T10:15:08.155Z,32.83
2023-04-19T10:16:18.866Z,32.46
2023-04-19T10:17:21.285Z,32.06
2023-04-19T10:18:24.372Z,32.06
2023-04-19T10:19:27.620Z,32.35
2023-04-19T10:20:34.021Z,31.92
2023-04-19T10:21:37.305Z,31.84
2023-04-19T10:22:40.090Z,31.64
2023-04-19T10:23:42.970Z,31.33
2023-04-19T10:25:10.839Z,31.07
2023-04-19T10:26:12.615Z,29.82
2023-04-19T10:27:16.175Z,29.88
2023-04-19T10:28:18.964Z,29.52
2023-04-19T10:29:55.130Z,29.66
2023-04-19T10:31:02.163Z,29.77
2023-04-19T10:32:06.004Z,30.08
2023-04-19T10:33:08.919Z,30.04
2023-04-19T10:34:18.070Z,29.96
2023-04-19T10:35:22.066Z,30.19
2023-04-19T10:36:28.555Z,30.55
2023-04-19T10:37:32.000Z,30.72
2023-04-19T10:38:39.448Z,30.81
2023-04-19T10:39:43.184Z,30.83
2023-04-19T10:41:00.964Z,30.68
2023-04-19T10:42:03.858Z,30.79
2023-04-19T10:43:17.888Z,30.67
2023-04-19T10:44:20.585Z,30.62
2023-04-19T10:45:32.439Z,30.37
2023-04-19T10:46:41.052Z,30.18
2023-04-19T10:47:43.723Z,29.70
2023-04-19T10:48:56.767Z,29.78
2023-04-19T10:49:58.559Z,29.52
2023-04-19T10:51:02.645Z,29.63
2023-04-19T10:52:05.424Z,29.80
2023-04-19T10:53:41.579Z,29.43
2023-04-19T10:54:44.377Z,28.93
2023-04-19T10:55:50.420Z,28.54
2023-04-19T10:57:02.235Z,28.21
2023-04-19T10:58:06.444Z,28.43
2023-04-19T10:59:22.894Z,28.30
2023-04-19T11:00:31.386Z,28.31
2023-04-19T11:01:33.820Z,28.20
2023-04-19T11:02:38.031Z,28.20
2023-04-19T11:03:52.431Z,28.23
2023-04-19T11:05:04.597Z,27.65
2023-04-19T11:06:16.906Z,27.64
2023-04-19T11:07:21.252Z,28.10
2023-04-19T11:08:23.435Z,28.34
2023-04-19T11:09:26.967Z,28.31
2023-04-19T11:10:31.200Z,27.87
2023-04-19T11:11:34.069Z,28.03
2023-04-19T11:12:36.804Z,28.10
2023-04-19T11:13:38.515Z,28.33
2023-04-19T11:14:42.560Z,28.45
2023-04-19T11:15:45.301Z,28.65
2023-04-19T11:16:47.232Z,28.32
2023-04-19T11:18:08.767Z,28.18
2023-04-19T11:19:15.611Z,28.43
2023-04-19T11:20:18.566Z,28.61
2023-04-19T11:21:20.525Z,29.17
2023-04-19T11:22:27.221Z,28.70
2023-04-19T11:23:28.899Z,28.28
2023-04-19T11:24:31.646Z,28.33
2023-04-19T11:25:34.300Z,28.65
2023-04-19T11:26:36.063Z,28.41
2023-04-19T11:27:39.425Z,28.53
2023-04-19T11:28:41.331Z,28.87
2023-04-19T11:29:44.065Z,28.94
2023-04-19T11:30:47.272Z,28.61
2023-04-19T11:31:49.030Z,27.99
2023-04-19T11:32:54.288Z,27.52
2023-04-19T11:33:59.940Z,27.89
2023-04-19T11:35:07.655Z,26.58
2023-04-19T11:36:13.103Z,26.88
2023-04-19T11:37:14.859Z,26.59
2023-04-19T11:38:17.613Z,26.33
2023-04-19T11:39:19.481Z,26.91
2023-04-19T11:40:23.628Z,26.59
2023-04-19T11:41:25.353Z,26.37
2023-04-19T11:42:28.146Z,26.11
2023-04-19T11:43:34.323Z,26.00
2023-04-19T11:44:38.316Z,25.37
2023-04-19T11:45:41.405Z,25.64
2023-04-19T11:46:43.798Z,25.55
2023-04-19T11:47:50.142Z,25.33
2023-04-19T11:48:54.048Z,24.72
2023-04-19T11:49:57.228Z,24.85
2023-04-19T11:50:59.830Z,24.84
2023-04-19T11:52:05.680Z,24.87
2023-04-19T11:53:17.164Z,24.92
2023-04-19T11:54:19.873Z,25.08
2023-04-19T11:55:22.490Z,24.98
2023-04-19T11:56:25.191Z,24.89
2023-04-19T11:57:28.416Z,24.23
2023-04-19T11:58:33.082Z,24.34
2023-04-19T11:59:35.934Z,24.63
2023-04-19T12:00:38.775Z,25.11
2023-04-19T12:01:41.443Z,24.12
2023-04-19T12:02:45.868Z,23.91
2023-04-19T12:03:49.860Z,23.98
2023-04-19T12:04:54.567Z,23.45
2023-04-19T12:05:58.324Z,23.63
2023-04-19T12:07:03.915Z,23.56
2023-04-19T12:08:07.985Z,23.41
2023-04-19T12:09:10.663Z,23.05
2023-04-19T12:10:14.138Z,22.72
2023-04-19T12:11:18.826Z,22.43
2023-04-19T12:12:33.035Z,22.82
2023-04-19T12:13:36.429Z,22.54
2023-04-19T12:14:39.275Z,22.98
2023-04-19T12:15:41.869Z,23.47
2023-04-19T12:16:44.925Z,23.23
2023-04-19T12:17:57.974Z,22.72
2023-04-19T12:19:11.967Z,22.10
2023-04-19T12:20:29.112Z,21.76
2023-04-19T12:21:33.089Z,20.72
2023-04-19T12:22:35.894Z,21.25
2023-04-19T12:23:37.652Z,21.47
2023-04-19T12:24:40.870Z,21.45
2023-04-19T12:25:43.604Z,21.34
2023-04-19T12:26:56.248Z,22.04
2023-04-19T12:27:58.287Z,21.20
2023-04-19T12:29:02.590Z,20.83
2023-04-19T12:30:07.008Z,21.25
2023-04-19T12:31:08.847Z,20.57
2023-04-19T12:32:12.969Z,21.10
2023-04-19T12:33:15.762Z,20.50
2023-04-19T12:34:17.524Z,21.15
2023-04-19T12:35:21.768Z,21.00
2023-04-19T12:36:23.559Z,21.17
2023-04-19T12:37:26.421Z,21.02
2023-04-19T12:38:29.080Z,21.31
2023-04-19T12:39:30.969Z,21.38
2023-04-19T12:40:34.341Z,21.47
2023-04-19T12:41:36.168Z,20.30
2023-04-19T12:42:38.940Z,20.03
2023-04-19T12:43:41.574Z,19.68
2023-04-19T12:44:43.293Z,19.43
2023-04-19T12:45:46.059Z,19.90
2023-04-19T12:46:47.785Z,20.41
2023-04-19T12:47:51.583Z,20.05
2023-04-19T12:48:53.344Z,20.07
2023-04-19T12:49:57.703Z,19.42
2023-04-19T12:51:00.931Z,19.18
2023-04-19T12:52:03.647Z,18.51
2023-04-19T12:53:06.743Z,18.85
2023-04-19T12:54:09.642Z,18.66
2023-04-19T12:55:11.350Z,18.81
2023-04-19T12:56:15.715Z,18.23
2023-04-19T12:57:18.510Z,18.31
2023-04-19T12:58:21.707Z,18.71
2023-04-19T12:59:23.714Z,18.20
2023-04-19T13:00:26.451Z,18.56
2023-04-19T13:01:29.181Z,18.26
2023-04-19T13:02:31.997Z,18.08
2023-04-19T13:03:36.626Z,18.11
2023-04-19T13:04:39.622Z,17.59
2023-04-19T13:05:41.572Z,18.02
2023-04-19T13:06:45.918Z,17.83
2023-04-19T13:07:47.646Z,17.92
2023-04-19T13:08:50.966Z,18.28
2023-04-19T13:09:56.015Z,17.78
2023-04-19T13:11:00.037Z,17.37
2023-04-19T13:12:03.159Z,17.10
2023-04-19T13:13:05.822Z,18.02
2023-04-19T13:14:07.517Z,17.64
2023-04-19T13:15:11.463Z,17.83
2023-04-19T13:16:13.213Z,17.61
2023-04-19T13:17:15.966Z,17.43
2023-04-19T13:18:18.762Z,17.72
2023-04-19T13:19:20.673Z,18.17
2023-04-19T13:20:23.382Z,18.10
2023-04-19T13:21:27.918Z,18.18
2023-04-19T13:22:32.369Z,18.38
2023-04-19T13:23:34.065Z,18.97
2023-04-19T13:24:36.734Z,18.87
2023-04-19T13:25:38.446Z,18.33
2023-04-19T13:26:41.312Z,17.81
2023-04-19T13:27:44.064Z,17.26
2023-04-19T13:28:45.849Z,18.38
2023-04-19T13:29:48.640Z,18.33
2023-04-19T13:30:50.412Z,18.30
2023-04-19T13:31:53.242Z,17.67
2023-04-19T13:32:54.975Z,17.54
2023-04-19T13:33:57.886Z,17.48
2023-04-19T13:34:59.764Z,17.30
2023-04-19T13:36:02.520Z,16.95
2023-04-19T13:37:05.566Z,17.01
2023-04-19T13:38:08.657Z,16.89
2023-04-19T13:39:11.346Z,17.24
2023-04-19T13:40:19.082Z,17.06
2023-04-19T13:41:21.791Z,17.09
2023-04-19T13:42:24.627Z,16.63
2023-04-19T13:43:27.656Z,17.02
2023-04-19T13:44:29.609Z,16.46
2023-04-19T13:45:32.357Z,16.80
2023-04-19T13:46:35.314Z,16.60
2023-04-19T13:47:37.103Z,16.94
2023-04-19T13:48:39.776Z,16.66
2023-04-19T13:49:41.485Z,15.91